Panagia — V2OQ5 — position and weather

sailwx.info

Track history (hours):
 
Tides and Currents Weather Stations Pressure Air Temp Water Temp Dewpoint Dewpoint Depression Visibility Wind Speed Wind Dir Waves Ship Positions

Panagia

Last reported at 2015-May-22 03:05 UTC. Time now 2015-May-22 10:07 UTC.
Position S 33°40' E 027°12'.

Length 120 m; draft 6.7 m.

Type: Cargo ship. MMSI: 304610000.

Date/timePositionNaut miles runAvg speedWind from/ knotsBaromVisibWave heightAir tempDewpointWater temp
2015-May-22 03:05S 33°40' E 027°12'2112.2
2015-May-22 01:23S 33°28' E 027°33'1211.7
2015-May-22 00:19S 33°21' E 027°45'2411.1
2015-May-21 22:08S 33°06' E 028°08'810.9
2015-May-21 21:22S 33°00' E 028°15'13712.6
2015-May-21 10:31S 31°25' E 030°12'1414.5
2015-May-21 09:33S 31°15' E 030°24'1716.1
2015-May-21 08:31S 31°03' E 030°36'1616.0
2015-May-21 07:32S 30°50' E 030°48'1615.8
2015-May-21 06:31S 30°38' E 030°60'1716.3
2015-May-21 05:30S 30°25' E 031°12'1515.9
2015-May-21 04:33S 30°14' E 031°23'1615.9
2015-May-21 03:33S 30°01' E 031°35'1716.3
2015-May-21 02:32S 29°49' E 031°48'  
Track history (hours):
 
Tides and Currents Weather Stations Pressure Air Temp Water Temp Dewpoint Dewpoint Depression Visibility Wind Speed Wind Dir Waves Ship Positions

Panagia

Last reported at 2015-May-22 03:05 UTC. Time now 2015-May-22 10:07 UTC.
Position S 33°40' E 027°12'.

Length 120 m; draft 6.7 m.

Type: Cargo ship. MMSI: 304610000.

Date/timePositionNaut miles runAvg speedWind from/ knotsBaromVisibWave heightAir tempDewpointWater temp
2015-May-22 03:05S 33°40' E 027°12'2112.2
2015-May-22 01:23S 33°28' E 027°33'1211.7
2015-May-22 00:19S 33°21' E 027°45'2411.1
2015-May-21 22:08S 33°06' E 028°08'810.9
2015-May-21 21:22S 33°00' E 028°15'13712.6
2015-May-21 10:31S 31°25' E 030°12'1414.5
2015-May-21 09:33S 31°15' E 030°24'1716.1
2015-May-21 08:31S 31°03' E 030°36'1616.0
2015-May-21 07:32S 30°50' E 030°48'1615.8
2015-May-21 06:31S 30°38' E 030°60'1716.3
2015-May-21 05:30S 30°25' E 031°12'1515.9
2015-May-21 04:33S 30°14' E 031°23'1615.9
2015-May-21 03:33S 30°01' E 031°35'1716.3
2015-May-21 02:32S 29°49' E 031°48'  

Dump ship's entire track history